Time;durP1;ratioP1;P1;durP2;ratioP2;P2;SDS_P1;SDS_P2;PMS_P1;PMS_P2;Temp;Humidity;BMP_temperature;BMP_pressure;BME280_temperature;BME280_humidity;BME280_pressure;Samples;Min_cycle;Max_cycle;Signal;HPM_P1;HPM_P2
2022/11/12 00:00:17;;;;;;;;;;;;;;;;;;5049675;28;19954;-57
2022/11/12 00:02:43;;;;;;;;;;;;;;;;;;5049781;28;20334;-60
2022/11/12 00:05:09;;;;;;;;;;;;;;;;;;5035865;28;19912;-58
2022/11/12 00:07:35;;;;;;;;;;;;;;;;;;5049843;28;19909;-59
2022/11/12 00:10:00;;;;;;;;;;;;;;;;;;5049702;28;19940;-59
2022/11/12 00:12:26;;;;;;;;;;;;;;;;;;5051200;28;19955;-57
2022/11/12 00:14:52;;;;;;;;;;;;;;;;;;5051732;28;19996;-56
2022/11/12 00:17:18;;;;;;;;;;;;;;;;;;5050263;28;20376;-54
2022/11/12 00:19:44;;;;;;;;;;;;;;;;;;5053973;28;19975;-56
2022/11/12 00:22:10;;;;;;;;;;;;;;;;;;5055901;28;19908;-57
2022/11/12 00:24:36;;;;;;;;;;;;;;;;;;5054406;28;19959;-54
2022/11/12 00:27:02;;;;;;;;;;;;;;;;;;5055603;28;19909;-55
2022/11/12 00:29:27;;;;;;;;;;;10.10;95.70;;;;;;5055575;28;20289;-58
2022/11/12 00:31:53;;;;;;;;;;;;;;;;;;5055718;28;19913;-59
2022/11/12 00:34:19;;;;;;;;;;;;;;;;;;5055374;28;19908;-58
2022/11/12 00:36:45;;;;;;;;;;;;;;;;;;5055338;28;20332;-58
2022/11/12 00:39:11;;;;;;;;;;;;;;;;;;5054959;28;19962;-60
2022/11/12 00:41:37;;;;;;;;;;;;;;;;;;5055070;28;20020;-59
2022/11/12 00:44:03;;;;;;;;;;;;;;;;;;5055361;28;19919;-57
2022/11/12 00:46:29;;;;;;;;;;;;;;;;;;5055344;28;20210;-59
2022/11/12 00:48:55;;;;;;;;;;;;;;;;;;5055167;28;19915;-59
2022/11/12 00:51:20;;;;;;;;;;;;;;;;;;5055342;28;20003;-59
2022/11/12 00:53:47;;;;;;;;;;;;;;;;;;5055020;28;20432;-55
2022/11/12 00:56:13;;;;;;;;;;;;;;;;;;5054838;28;19940;-58
2022/11/12 00:58:39;;;;;;;;;;;;;;;;;;5054821;28;19959;-55
2022/11/12 01:01:05;;;;;;;;;;;;;;;;;;5055106;28;20000;-56
2022/11/12 01:03:31;;;;;;;;;;;;;;;;;;5055247;28;19905;-59
2022/11/12 01:05:57;;;;;;;;;;;;;;;;;;5054736;28;19913;-58
2022/11/12 01:08:23;;;;;;;;;;;;;;;;;;5054681;28;19944;-57
2022/11/12 01:10:48;;;;;;;;;;;10.20;96.70;;;;;;5055110;28;19974;-57
2022/11/12 01:13:14;;;;;;;;;;;;;;;;;;5055200;28;20323;-58
2022/11/12 01:15:41;;;;;;;;;;;;;;;;;;5038169;28;20027;-58
2022/11/12 01:18:07;;;;;;;;;;;;;;;;;;5037583;28;20411;-57
2022/11/12 01:20:33;;;;;;;;;;;;;;;;;;5054791;28;19909;-58
2022/11/12 01:22:59;;;;;;;;;;;;;;;;;;5054927;28;19904;-58
2022/11/12 01:25:25;;;;;;;;;;;;;;;;;;5054467;28;19913;-58
2022/11/12 01:27:52;;;;;;;;;;;10.40;96.40;;;;;;5054404;28;20384;-58
2022/11/12 01:30:18;;;;;;;;;;;;;;;;;;5044070;28;19909;-58
2022/11/12 01:32:44;;;;;;;;;;;;;;;;;;5055037;28;19909;-54
2022/11/12 01:35:09;;;;;;;;;;;10.00;97.20;;;;;;5054362;28;19909;-56
2022/11/12 01:37:35;;;;;;;;;;;10.00;97.30;;;;;;5053006;28;20354;-56
2022/11/12 01:40:01;;;;;;;;;;;;;;;;;;5053753;28;19971;-54
2022/11/12 01:42:26;;;;;;;;;;;;;;;;;;5054371;28;20365;-58
2022/11/12 01:44:52;;;;;;;;;;;10.00;97.10;;;;;;5054181;28;19948;-58
2022/11/12 01:47:18;;;;;;;;;;;;;;;;;;5054155;28;19953;-58
2022/11/12 01:50:04;;;;;;;;;;;10.00;96.90;;;;;;5054002;28;20339;-55
2022/11/12 01:52:30;;;;;;;;;;;;;;;;;;5043205;28;19908;-58
2022/11/12 01:54:56;;;;;;;;;;;;;;;;;;5054170;28;20431;-58
2022/11/12 01:57:21;;;;;;;;;;;;;;;;;;5053784;28;19959;-57
2022/11/12 01:59:47;;;;;;;;;;;;;;;;;;5053760;28;19908;-58
2022/11/12 02:02:13;;;;;;;;;;;;;;;;;;5053651;28;19908;-56
2022/11/12 02:04:39;;;;;;;;;;;9.90;97.80;;;;;;5054040;28;19981;-56
2022/11/12 02:07:05;;;;;;;;;;;10.00;97.50;;;;;;5053677;28;19931;-56
2022/11/12 02:09:31;;;;;;;;;;;10.00;97.40;;;;;;5053381;28;19915;-55
2022/11/12 02:11:57;;;;;;;;;;;10.00;97.10;;;;;;5053843;28;19908;-55
2022/11/12 02:14:23;;;;;;;;;;;;;;;;;;5053858;28;20380;-59
2022/11/12 02:16:49;;;;;;;;;;;9.90;97.20;;;;;;5053425;28;19908;-56
2022/11/12 02:19:15;;;;;;;;;;;;;;;;;;5053313;28;19909;-58
2022/11/12 02:21:41;;;;;;;;;;;;;;;;;;5053725;28;19913;-57
2022/11/12 02:24:06;;;;;;;;;;;;;;;;;;5035975;28;19917;-57
2022/11/12 02:26:32;;;;;;;;;;;;;;;;;;5035646;28;19966;-59
2022/11/12 02:28:58;;;;;;;;;;;;;;;;;;5039268;28;20380;-58
2022/11/12 02:31:24;;;;;;;;;;;;;;;;;;5050449;28;19964;-58
2022/11/12 02:33:50;;;;;;;;;;;;;;;;;;5052849;28;20355;-58
2022/11/12 02:36:16;;;;;;;;;;;;;;;;;;5053235;28;20011;-59
2022/11/12 02:38:42;;;;;;;;;;;;;;;;;;5053133;28;20041;-58
2022/11/12 02:41:08;;;;;;;;;;;;;;;;;;5052710;28;19947;-58
2022/11/12 02:43:34;;;;;;;;;;;;;;;;;;5052781;28;20334;-58
2022/11/12 02:46:00;;;;;;;;;;;;;;;;;;5053025;28;19966;-57
2022/11/12 02:48:26;;;;;;;;;;;;;;;;;;5052870;28;20148;-58
2022/11/12 02:50:52;;;;;;;;;;;;;;;;;;5052846;28;19916;-58
2022/11/12 02:53:18;;;;;;;;;;;;;;;;;;5053209;28;20383;-58
2022/11/12 02:55:44;;;;;;;;;;;;;;;;;;5052370;28;19908;-57
2022/11/12 02:58:09;;;;;;;;;;;;;;;;;;5052680;28;19996;-60
2022/11/12 03:00:35;;;;;;;;;;;;;;;;;;5052611;28;19909;-55
2022/11/12 03:03:01;;;;;;;;;;;;;;;;;;5052375;28;19960;-55
2022/11/12 03:05:28;;;;;;;;;;;9.80;97.40;;;;;;5052768;28;19948;-55
2022/11/12 03:07:54;;;;;;;;;;;;;;;;;;5052818;28;19905;-58
2022/11/12 03:10:20;;;;;;;;;;;;;;;;;;5052357;28;19916;-57
2022/11/12 03:12:46;;;;;;;;;;;;;;;;;;5035023;28;19917;-58
2022/11/12 03:15:12;;;;;;;;;;;;;;;;;;5052636;28;20298;-59
2022/11/12 03:17:38;;;;;;;;;;;;;;;;;;5052211;28;19908;-58
2022/11/12 03:20:04;;;;;;;;;;;;;;;;;;5052104;28;20361;-57
2022/11/12 03:22:30;;;;;;;;;;;;;;;;;;5052092;28;19924;-58
2022/11/12 03:24:56;;;;;;;;;;;;;;;;;;5052443;28;19909;-55
2022/11/12 03:27:22;;;;;;;;;;;;;;;;;;5052125;28;20297;-54
2022/11/12 03:29:47;;;;;;;;;;;;;;;;;;5052423;28;19905;-57
2022/11/12 03:32:13;;;;;;;;;;;9.90;98.00;;;;;;5051744;28;19915;-59
2022/11/12 03:34:39;;;;;;;;;;;;;;;;;;5052183;28;19999;-56
2022/11/12 03:37:08;;;;;;;;;;;;;;;;;;5051695;28;19955;-56
2022/11/12 03:39:34;;;;;;;;;;;;;;;;;;5052197;28;19955;-58
2022/11/12 03:42:00;;;;;;;;;;;;;;;;;;5051779;28;19943;-56
2022/11/12 03:44:25;;;;;;;;;;;9.70;98.20;;;;;;5049370;28;20369;-58
2022/11/12 03:46:51;;;;;;;;;;;;;;;;;;5051381;28;19999;-57
2022/11/12 03:49:17;;;;;;;;;;;;;;;;;;5050894;28;19920;-58
2022/11/12 03:51:43;;;;;;;;;;;;;;;;;;5048373;28;19918;-58
2022/11/12 03:54:09;;;;;;;;;;;;;;;;;;5050946;28;19916;-59
2022/11/12 03:56:35;;;;;;;;;;;;;;;;;;5051961;28;19913;-58
2022/11/12 03:59:00;;;;;;;;;;;9.90;97.80;;;;;;5051662;28;20288;-59
2022/11/12 04:01:26;;;;;;;;;;;;;;;;;;5051614;28;19913;-59
2022/11/12 04:03:52;;;;;;;;;;;9.80;98.00;;;;;;5051357;28;19915;-58
2022/11/12 04:09:02;;;;;;;;;;;9.80;97.80;;;;;;5051659;28;19915;-58
2022/11/12 04:11:27;;;;;;;;;;;9.90;97.60;;;;;;5040947;28;19992;-57
2022/11/12 04:13:53;;;;;;;;;;;9.80;97.60;;;;;;5047264;28;19987;-56
2022/11/12 04:22:08;;;;;;;;;;;9.90;97.60;;;;;;4990415;28;20322;-57
2022/11/12 04:27:20;;;;;;;;;;;;;;;;;;5051339;28;20407;-58
2022/11/12 04:32:31;;;;;;;;;;;10.00;97.00;;;;;;5050894;28;20364;-58
2022/11/12 04:34:57;;;;;;;;;;;;;;;;;;5051839;28;20364;-56
2022/11/12 04:37:23;;;;;;;;;;;;;;;;;;5051040;28;19974;-59
2022/11/12 04:39:49;;;;;;;;;;;10.00;97.30;;;;;;5051433;28;19913;-57
2022/11/12 04:45:03;;;;;;;;;;;;;;;;;;5049833;28;20327;-56
2022/11/12 04:47:29;;;;;;;;;;;;;;;;;;5051162;28;19908;-56
2022/11/12 04:49:55;;;;;;;;;;;;;;;;;;5051281;28;20288;-56
2022/11/12 04:52:21;;;;;;;;;;;;;;;;;;5051642;28;20089;-57
2022/11/12 04:54:47;;;;;;;;;;;;;;;;;;5051568;28;19935;-55
2022/11/12 04:57:13;;;;;;;;;;;;;;;;;;5050928;28;19919;-55
2022/11/12 04:59:39;;;;;;;;;;;;;;;;;;5050993;28;19908;-58
2022/11/12 05:02:05;;;;;;;;;;;;;;;;;;5041264;28;19905;-59
2022/11/12 05:04:31;;;;;;;;;;;;;;;;;;5047873;28;19908;-59
2022/11/12 05:06:57;;;;;;;;;;;;;;;;;;5055160;28;20319;-55
2022/11/12 05:09:23;;;;;;;;;;;;;;;;;;5037059;28;19999;-57
2022/11/12 05:11:48;;;;;;;;;;;9.80;97.80;;;;;;5055100;28;20409;-57
2022/11/12 05:14:14;;;;;;;;;;;;;;;;;;5055108;28;19905;-57
2022/11/12 05:16:40;;;;;;;;;;;;;;;;;;5055022;28;20009;-57
2022/11/12 05:19:06;;;;;;;;;;;;;;;;;;5054804;28;19949;-58
2022/11/12 05:24:16;;;;;;;;;;;;;;;;;;5054920;28;19962;-57
2022/11/12 05:26:42;;;;;;;;;;;;;;;;;;5054811;28;19908;-58
2022/11/12 05:29:08;;;;;;;;;;;;;;;;;;5054687;28;19904;-58
2022/11/12 05:31:34;;;;;;;;;;;;;;;;;;5054648;28;19912;-59
2022/11/12 05:34:03;;;;;;;;;;;;;;;;;;5054801;28;19915;-57
2022/11/12 05:36:29;;;;;;;;;;;9.70;97.80;;;;;;5036804;28;19904;-56
2022/11/12 05:38:54;;;;;;;;;;;9.50;98.20;;;;;;5054824;28;19911;-55
2022/11/12 05:41:20;;;;;;;;;;;9.60;98.10;;;;;;5054768;28;20358;-56
2022/11/12 05:43:46;;;;;;;;;;;;;;;;;;5054704;28;19908;-55
2022/11/12 05:46:12;;;;;;;;;;;;;;;;;;5054489;28;19916;-56
2022/11/12 05:48:38;;;;;;;;;;;;;;;;;;5054436;28;19905;-57
2022/11/12 05:51:03;;;;;;;;;;;;;;;;;;5054539;28;19908;-56
2022/11/12 05:53:29;;;;;;;;;;;;;;;;;;5054459;28;20381;-58
2022/11/12 05:55:55;;;;;;;;;;;;;;;;;;5054279;28;19951;-59
2022/11/12 05:58:21;;;;;;;;;;;;;;;;;;5054249;28;19909;-57
2022/11/12 06:00:47;;;;;;;;;;;;;;;;;;5054259;28;19904;-58
2022/11/12 06:03:13;;;;;;;;;;;;;;;;;;5054309;28;20304;-58
2022/11/12 06:05:39;;;;;;;;;;;;;;;;;;5054143;28;19909;-58
2022/11/12 06:08:05;;;;;;;;;;;;;;;;;;5054154;28;19905;-58
2022/11/12 06:10:31;;;;;;;;;;;;;;;;;;5054076;28;19901;-58
2022/11/12 06:12:57;;;;;;;;;;;;;;;;;;5036229;28;20045;-58
2022/11/12 06:15:26;;;;;;;;;;;;;;;;;;5054082;28;19904;-54
2022/11/12 06:17:52;;;;;;;;;;;;;;;;;;5052923;28;20300;-56
2022/11/12 06:20:18;;;;;;;;;;;;;;;;;;5053812;28;19900;-51
2022/11/12 06:22:43;;;;;;;;;;;;;;;;;;5053948;28;20443;-54
2022/11/12 06:25:09;;;;;;;;;;;;;;;;;;5053830;28;20265;-58
2022/11/12 06:27:36;;;;;;;;;;;;;;;;;;5052798;28;19916;-58
2022/11/12 06:30:01;;;;;;;;;;;;;;;;;;5053140;28;19916;-58
2022/11/12 06:32:27;;;;;;;;;;;;;;;;;;5053707;28;19904;-57
2022/11/12 06:34:53;;;;;;;;;;;;;;;;;;5053651;28;20320;-59
2022/11/12 06:37:20;;;;;;;;;;;;;;;;;;5053743;28;20436;-59
2022/11/12 06:39:46;;;;;;;;;;;;;;;;;;5053672;28;19915;-57
2022/11/12 06:42:12;;;;;;;;;;;9.60;98.10;;;;;;5053604;28;20003;-58
2022/11/12 06:44:38;;;;;;;;;;;;;;;;;;5053322;28;19912;-58
2022/11/12 06:47:04;;;;;;;;;;;;;;;;;;5053339;28;19994;-59
2022/11/12 06:49:30;;;;;;;;;;;;;;;;;;5053412;28;19999;-59
2022/11/12 06:51:56;;;;;;;;;;;;;;;;;;5053318;28;19912;-57
2022/11/12 06:54:22;;;;;;;;;;;;;;;;;;5053294;28;19909;-59
2022/11/12 06:56:47;;;;;;;;;;;;;;;;;;5035239;28;19920;-59
2022/11/12 06:59:13;;;;;;;;;;;;;;;;;;5053050;28;20249;-61
2022/11/12 07:01:39;;;;;;;;;;;;;;;;;;5052985;28;19911;-60
2022/11/12 07:04:05;;;;;;;;;;;9.80;99.00;;;;;;5052929;28;19915;-61
2022/11/12 07:06:32;;;;;;;;;;;10.20;98.90;;;;;;5053054;28;19911;-60
2022/11/12 07:08:58;;;;;;;;;;;10.20;99.30;;;;;;5052936;28;19999;-61
2022/11/12 07:11:23;;;;;;;;;;;;;;;;;;5053052;28;20407;-62
2022/11/12 07:13:49;;;;;;;;;;;;;;;;;;5053040;28;20382;-62
2022/11/12 07:16:17;;;;;;;;;;;;;;;;;;5052869;28;20353;-61
2022/11/12 07:18:43;;;;;;;;;;;;;;;;;;5052720;28;19905;-61
2022/11/12 07:21:09;;;;;;;;;;;;;;;;;;5052857;28;20353;-55
2022/11/12 07:23:35;;;;;;;;;;;;;;;;;;5052745;28;19961;-57
2022/11/12 07:26:01;;;;;;;;;;;;;;;;;;5052737;28;20330;-59
2022/11/12 07:28:27;;;;;;;;;;;;;;;;;;5051907;28;19912;-58
2022/11/12 07:30:54;;;;;;;;;;;;;;;;;;5052321;28;19927;-59
2022/11/12 07:33:20;;;;;;;;;;;;;;;;;;5052597;28;19905;-59
2022/11/12 07:35:46;;;;;;;;;;;;;;;;;;5034572;28;19904;-54
2022/11/12 07:38:12;;;;;;;;;;;;;;;;;;5052369;28;19905;-57
2022/11/12 07:40:37;;;;;;;;;;;;;;;;;;5052543;28;20289;-55
2022/11/12 07:43:03;;;;;;;;;;;;;;;;;;5052305;28;19944;-57
2022/11/12 07:45:29;;;;;;;;;;;;;;;;;;5052380;28;19909;-58
2022/11/12 07:47:55;;;;;;;;;;;;;;;;;;5052424;28;19912;-58
2022/11/12 07:50:21;;;;;;;;;;;;;;;;;;5052153;28;19905;-59
2022/11/12 07:52:47;;;;;;;;;;;;;;;;;;5052272;28;19908;-58
2022/11/12 07:55:13;;;;;;;;;;;;;;;;;;5052269;28;19905;-57
2022/11/12 07:57:39;;;;;;;;;;;;;;;;;;5051163;28;19920;-60
2022/11/12 08:00:05;;;;;;;;;;;;;;;;;;5052148;28;19909;-59
2022/11/12 08:02:31;;;;;;;;;;;;;;;;;;5052410;28;19998;-60
2022/11/12 08:04:57;;;;;;;;;;;;;;;;;;5034230;28;19948;-58
2022/11/12 08:07:23;;;;;;;;;;;;;;;;;;5052127;28;19909;-59
2022/11/12 08:09:49;;;;;;;;;;;;;;;;;;5034253;28;19924;-59
2022/11/12 08:12:15;;;;;;;;;;;;;;;;;;5033642;28;19909;-58
2022/11/12 08:14:41;;;;;;;;;;;;;;;;;;5052000;28;19908;-57
2022/11/12 08:17:07;;;;;;;;;;;;;;;;;;5034475;28;19908;-59
2022/11/12 08:19:33;;;;;;;;;;;;;;;;;;5051480;28;19955;-56
2022/11/12 08:21:59;;;;;;;;;;;;;;;;;;5051224;28;19940;-55
2022/11/12 08:24:25;;;;;;;;;;;;;;;;;;5051747;28;19955;-56
2022/11/12 08:26:50;;;;;;;;;;;;;;;;;;5051816;28;19936;-58
2022/11/12 08:29:17;;;;;;;;;;;;;;;;;;5051981;28;20378;-58
2022/11/12 08:31:43;;;;;;;;;;;;;;;;;;5051930;28;19958;-59
2022/11/12 08:34:10;;;;;;;;;;;;;;;;;;5051625;28;19908;-59
2022/11/12 08:36:36;;;;;;;;;;;;;;;;;;5051916;28;20281;-59
2022/11/12 08:39:02;;;;;;;;;;;;;;;;;;5034191;28;20277;-59
2022/11/12 08:41:28;;;;;;;;;;;;;;;;;;5055240;28;19904;-60
2022/11/12 08:43:54;;;;;;;;;;;;;;;;;;5055324;28;19912;-58
2022/11/12 08:46:20;;;;;;;;;;;;;;;;;;5055302;28;19909;-59
2022/11/12 08:48:46;;;;;;;;;;;;;;;;;;5055546;28;19905;-59
2022/11/12 08:51:12;;;;;;;;;;;;;;;;;;5055619;28;20337;-59
2022/11/12 08:53:38;;;;;;;;;;;;;;;;;;5055199;28;19998;-59
2022/11/12 08:56:04;;;;;;;;;;;;;;;;;;5054495;28;20003;-58
2022/11/12 08:58:30;;;;;;;;;;;;;;;;;;5055152;28;19999;-58
2022/11/12 09:00:56;;;;;;;;;;;;;;;;;;5055407;28;19999;-59
2022/11/12 09:03:22;;;;;;;;;;;;;;;;;;5055441;28;19967;-63
2022/11/12 09:05:47;;;;;;;;;;;;;;;;;;5055187;28;20022;-62
2022/11/12 09:08:13;;;;;;;;;;;;;;;;;;5055125;28;19905;-62
2022/11/12 09:10:39;;;;;;;;;;;;;;;;;;5055145;28;19909;-61
2022/11/12 09:13:05;;;;;;;;;;;;;;;;;;5055061;28;19911;-61
2022/11/12 09:15:31;;;;;;;;;;;;;;;;;;5055145;28;20384;-61
2022/11/12 09:17:57;;;;;;;;;;;;;;;;;;5055235;28;19913;-61
2022/11/12 09:20:23;;;;;;;;;;;;;;;;;;5054823;28;20264;-61
2022/11/12 09:22:49;;;;;;;;;;;;;;;;;;5055439;28;19934;-62
2022/11/12 09:25:15;;;;;;;;;;;;;;;;;;5054822;28;20361;-62
2022/11/12 09:27:41;;;;;;;;;;;;;;;;;;5054725;28;19970;-61
2022/11/12 09:30:07;;;;;;;;;;;;;;;;;;5054718;28;19909;-62
2022/11/12 09:32:33;;;;;;;;;;;;;;;;;;5054792;28;19908;-62
2022/11/12 09:34:59;;;;;;;;;;;;;;;;;;5054657;28;19905;-62
2022/11/12 09:37:25;;;;;;;;;;;;;;;;;;5054591;28;19905;-63
2022/11/12 09:39:51;;;;;;;;;;;;;;;;;;5054269;28;19975;-63
2022/11/12 09:42:16;;;;;;;;;;;;;;;;;;5054431;28;20011;-61
2022/11/12 09:44:42;;;;;;;;;;;;;;;;;;5054557;28;19952;-62
2022/11/12 09:47:08;;;;;;;;;;;;;;;;;;5054588;28;20250;-61
2022/11/12 09:49:34;;;;;;;;;;;;;;;;;;5054467;28;20289;-61
2022/11/12 09:52:00;;;;;;;;;;;;;;;;;;5054731;28;20425;-61
2022/11/12 09:54:26;;;;;;;;;;;;;;;;;;5054340;28;19948;-62
2022/11/12 09:56:52;;;;;;;;;;;;;;;;;;5054358;28;19919;-61
2022/11/12 09:59:18;;;;;;;;;;;;;;;;;;5054288;28;19966;-62
2022/11/12 10:01:44;;;;;;;;;;;;;;;;;;5054235;28;19999;-62
2022/11/12 10:04:10;;;;;;;;;;;;;;;;;;5054127;28;19904;-62
2022/11/12 10:06:36;;;;;;;;;;;;;;;;;;5054066;28;20289;-61
2022/11/12 10:09:02;;;;;;;;;;;;;;;;;;5054389;28;20291;-62
2022/11/12 10:11:28;;;;;;;;;;;;;;;;;;5053970;28;19987;-62
2022/11/12 10:13:53;;;;;;;;;;;;;;;;;;5053969;28;20408;-62
2022/11/12 10:19:04;;;;;;;;;;;;;;;;;;5053879;28;19911;-62
2022/11/12 10:21:30;;;;;;;;;;;;;;;;;;5053888;28;19909;-63
2022/11/12 10:23:56;;;;;;;;;;;;;;;;;;5053713;28;19905;-62
2022/11/12 10:26:22;;;;;;;;;;;;;;;;;;5053660;28;20011;-62
2022/11/12 10:28:47;;;;;;;;;;;;;;;;;;5053616;28;19954;-62
2022/11/12 10:31:14;;;;;;;;;;;;;;;;;;5053771;28;19911;-63
2022/11/12 10:33:39;;;;;;;;;;;;;;;;;;5053592;28;19905;-62
2022/11/12 10:36:05;;;;;;;;;;;;;;;;;;5053642;28;19909;-63
2022/11/12 10:38:31;;;;;;;;;;;;;;;;;;5053483;28;19905;-63
2022/11/12 10:40:57;;;;;;;;;;;;;;;;;;5053707;28;19909;-62
2022/11/12 10:43:23;;;;;;;;;;;;;;;;;;5053606;28;20327;-61
2022/11/12 10:45:49;;;;;;;;;;;;;;;;;;5053393;28;19909;-62
2022/11/12 10:48:15;;;;;;;;;;;;;;;;;;5053424;28;19911;-62
2022/11/12 10:50:41;;;;;;;;;;;;;;;;;;5053343;28;19909;-62
2022/11/12 10:53:07;;;;;;;;;;;;;;;;;;5053276;28;20399;-62
2022/11/12 10:55:33;;;;;;;;;;;;;;;;;;5053329;28;19991;-61
2022/11/12 10:57:59;;;;;;;;;;;;;;;;;;5075665;22;20016;-66
2022/11/12 11:00:25;;;;;;;;;;;;;;;;;;5051099;28;20007;-65
2022/11/12 11:02:51;;;;;;;;;;;;;;;;;;5051961;28;19951;-66
2022/11/12 11:05:17;;;;;;;;;;;;;;;;;;5052564;28;19917;-65
2022/11/12 11:07:43;;;;;;;;;;;;;;;;;;5053000;28;20280;-64
2022/11/12 11:10:09;;;;;;;;;;;;;;;;;;5053002;28;20412;-65
2022/11/12 11:12:35;;;;;;;;;;;;;;;;;;5052949;28;19905;-65
2022/11/12 11:15:01;;;;;;;;;;;;;;;;;;5052945;28;19904;-65
2022/11/12 11:17:27;;;;;;;;;;;;;;;;;;5052827;28;19958;-65
2022/11/12 11:19:53;;;;;;;;;;;;;;;;;;5052765;28;19905;-65
2022/11/12 11:22:19;;;;;;;;;;;;;;;;;;5052755;28;19911;-65
2022/11/12 11:24:45;;;;;;;;;;;;;;;;;;5052740;28;19909;-65
2022/11/12 11:27:11;;;;;;;;;;;;;;;;;;5051392;28;19994;-65
2022/11/12 11:29:36;;;;;;;;;;;;;;;;;;5052291;28;20284;-65
2022/11/12 11:32:02;;;;;;;;;;;;;;;;;;5052622;28;19911;-66
2022/11/12 11:34:28;;;;;;;;;;;;;;;;;;5052639;28;19916;-66
2022/11/12 11:36:54;;;;;;;;;;;;;;;;;;5052537;28;19912;-66
2022/11/12 11:39:20;;;;;;;;;;;;;;;;;;5052418;28;20288;-66
2022/11/12 11:41:46;;;;;;;;;;;;;;;;;;5050873;28;19950;-66
2022/11/12 11:44:17;;;;;;;;;;;10.10;99.40;;;;;;5051354;28;19970;-68
2022/11/12 11:46:53;;;;;;;;;;;14.70;92.20;;;;;;5042636;28;19916;-66
2022/11/12 11:49:18;;;;;;;;;;;14.70;92.00;;;;;;5032251;28;19963;-65
2022/11/12 11:51:47;;;;;;;;;;;14.70;92.40;;;;;;5031561;28;19909;-66
2022/11/12 11:54:13;;;;;;;;;;;;;;;;;;5037793;28;20437;-64
2022/11/12 11:56:39;;;;;;;;;;;;;;;;;;5047817;28;19966;-63
2022/11/12 11:59:05;;;;;;;;;;;;;;;;;;5044720;28;19909;-63
2022/11/12 12:01:31;;;;;;;;;;;;;;;;;;5032242;28;19971;-66
2022/11/12 12:03:57;;;;;;;;;;;;;;;;;;5040115;28;19954;-66
2022/11/12 12:06:23;;;;;;;;;;;;;;;;;;5045025;28;19938;-65
2022/11/12 12:09:07;;;;;;;;;;;14.80;92.00;;;;;;5047457;28;20007;-66
2022/11/12 12:11:37;;;;;;;;;;;14.70;91.20;;;;;;5041051;28;19979;-66
2022/11/12 12:14:02;;;;;;;;;;;14.70;91.20;;;;;;5047899;28;19916;-65
2022/11/12 12:16:28;;;;;;;;;;;;;;;;;;5043356;28;20292;-66
2022/11/12 12:18:59;;;;;;;;;;;14.80;90.40;;;;;;5042802;28;20038;-65
2022/11/12 12:21:25;;;;;;;;;;;;;;;;;;5050842;28;19908;-67
2022/11/12 12:23:57;;;;;;;;;;;14.60;91.60;;;;;;5052090;28;19985;-66
2022/11/12 12:26:23;;;;;;;;;;;;;;;;;;5034172;28;19913;-66
2022/11/12 12:28:49;;;;;;;;;;;;;;;;;;5040407;28;19935;-66
2022/11/12 12:31:15;;;;;;;;;;;;;;;;;;5050527;28;19928;-66
2022/11/12 12:33:41;;;;;;;;;;;;;;;;;;5051896;28;20422;-66
2022/11/12 12:36:06;;;;;;;;;;;;;;;;;;5037942;28;19913;-66
2022/11/12 12:38:32;;;;;;;;;;;;;;;;;;5037584;28;19909;-64
2022/11/12 12:41:00;;;;;;;;;;;;;;;;;;5044012;28;19913;-66
2022/11/12 12:43:26;;;;;;;;;;;;;;;;;;5039141;28;19927;-67
2022/11/12 12:45:52;;;;;;;;;;;;;;;;;;5046290;28;20436;-66
2022/11/12 12:48:18;;;;;;;;;;;;;;;;;;5050029;28;19954;-66
2022/11/12 12:50:44;;;;;;;;;;;;;;;;;;5051615;28;19948;-66
2022/11/12 12:53:10;;;;;;;;;;;;;;;;;;5051725;28;19932;-66
2022/11/12 12:55:36;;;;;;;;;;;;;;;;;;5039167;28;19909;-66
2022/11/12 12:58:02;;;;;;;;;;;;;;;;;;5032018;28;19913;-66
2022/11/12 13:00:28;;;;;;;;;;;;;;;;;;5051630;28;19995;-66
2022/11/12 13:02:54;;;;;;;;;;;;;;;;;;5051660;28;19959;-66
2022/11/12 13:05:20;;;;;;;;;;;;;;;;;;5042407;28;19960;-66
2022/11/12 13:07:46;;;;;;;;;;;;;;;;;;5032556;28;19932;-66
2022/11/12 13:10:12;;;;;;;;;;;;;;;;;;5042004;28;20276;-66
2022/11/12 13:12:38;;;;;;;;;;;;;;;;;;5031713;28;19916;-66
2022/11/12 13:15:04;;;;;;;;;;;;;;;;;;5035895;28;19976;-66
2022/11/12 13:17:30;;;;;;;;;;;;;;;;;;5051523;28;19905;-66
2022/11/12 13:19:56;;;;;;;;;;;;;;;;;;5051103;28;20285;-66
2022/11/12 13:22:22;;;;;;;;;;;;;;;;;;5051654;28;19911;-66
2022/11/12 13:24:48;;;;;;;;;;;;;;;;;;5048199;28;19923;-66
2022/11/12 13:27:14;;;;;;;;;;;;;;;;;;5034153;28;19996;-66
2022/11/12 13:29:40;;;;;;;;;;;;;;;;;;5036016;28;19963;-62
2022/11/12 13:32:06;;;;;;;;;;;;;;;;;;5034684;28;19909;-65
2022/11/12 13:34:32;;;;;;;;;;;;;;;;;;5034968;28;20400;-66
2022/11/12 13:36:58;;;;;;;;;;;;;;;;;;5034894;28;20016;-66
2022/11/12 13:39:24;;;;;;;;;;;;;;;;;;5034883;28;19996;-66
2022/11/12 13:44:35;;;;;;;;;;;;;;;;;;5054701;28;20011;-66
2022/11/12 13:47:01;;;;;;;;;;;;;;;;;;5038523;28;19940;-67
2022/11/12 13:49:27;;;;;;;;;;;;;;;;;;5034686;28;19963;-67
2022/11/12 13:51:54;;;;;;;;;;;;;;;;;;5034480;28;19943;-67
2022/11/12 13:54:20;;;;;;;;;;;;;;;;;;5036779;28;20007;-67
2022/11/12 13:56:46;;;;;;;;;;;;;;;;;;5040352;28;19995;-67
2022/11/12 13:59:12;;;;;;;;;;;;;;;;;;5045015;28;20004;-67
2022/11/12 14:01:39;;;;;;;;;;;;;;;;;;5049022;28;19908;-67
2022/11/12 14:04:05;;;;;;;;;;;;;;;;;;5035840;28;19940;-67
2022/11/12 14:06:31;;;;;;;;;;;;;;;;;;5048804;28;19944;-67
2022/11/12 14:08:57;;;;;;;;;;;;;;;;;;5053999;28;20284;-67
2022/11/12 14:11:23;;;;;;;;;;;;;;;;;;5044997;28;19909;-66
2022/11/12 14:13:49;;;;;;;;;;;;;;;;;;5034375;28;20259;-67
2022/11/12 14:16:15;;;;;;;;;;;;;;;;;;5032766;28;20391;-67
2022/11/12 14:18:41;;;;;;;;;;;;;;;;;;5033810;28;19999;-67
2022/11/12 14:21:07;;;;;;;;;;;;;;;;;;5037965;28;20313;-67
2022/11/12 14:23:33;;;;;;;;;;;;;;;;;;5051948;28;19931;-65
2022/11/12 14:25:59;;;;;;;;;;;;;;;;;;5052176;28;19985;-67
2022/11/12 14:28:26;;;;;;;;;;;;;;;;;;5052204;28;19905;-67
2022/11/12 14:30:51;;;;;;;;;;;;;;;;;;5053707;28;20380;-67
2022/11/12 14:33:17;;;;;;;;;;;;;;;;;;5053308;28;19905;-67
2022/11/12 14:35:43;;;;;;;;;;;;;;;;;;5052347;28;19995;-67
2022/11/12 14:38:09;;;;;;;;;;;;;;;;;;5051149;28;19912;-66
2022/11/12 14:40:35;;;;;;;;;;;;;;;;;;5053632;28;19905;-67
2022/11/12 14:43:01;;;;;;;;;;;;;;;;;;5053487;28;19904;-67
2022/11/12 14:45:27;;;;;;;;;;;;;;;;;;5053619;28;20015;-67
2022/11/12 14:47:53;;;;;;;;;;;;;;;;;;5053454;28;19947;-67
2022/11/12 14:50:19;;;;;;;;;;;;;;;;;;5051906;28;19922;-67
2022/11/12 14:52:45;;;;;;;;;;;;;;;;;;5052550;28;19995;-67
2022/11/12 14:55:12;;;;;;;;;;;;;;;;;;5053397;28;19912;-67
2022/11/12 14:57:38;;;;;;;;;;;;;;;;;;5053284;28;19999;-66
2022/11/12 15:00:04;;;;;;;;;;;;;;;;;;5053205;28;20004;-67
2022/11/12 15:02:31;;;;;;;;;;;;;;;;;;5051905;28;19940;-66
2022/11/12 15:04:57;;;;;;;;;;;;;;;;;;5053161;28;20391;-66
2022/11/12 15:07:23;;;;;;;;;;;;;;;;;;5053131;28;19981;-66
2022/11/12 15:09:49;;;;;;;;;;;;;;;;;;5053006;28;19909;-66
2022/11/12 15:12:15;;;;;;;;;;;;;;;;;;5053073;28;20285;-66
2022/11/12 15:14:41;;;;;;;;;;;;;;;;;;5052975;28;20373;-66
2022/11/12 15:17:07;;;;;;;;;;;;;;;;;;5052792;28;19905;-66
2022/11/12 15:19:33;;;;;;;;;;;;;;;;;;5052767;28;19924;-66
2022/11/12 15:22:00;;;;;;;;;;;;;;;;;;5051640;28;19939;-66
2022/11/12 15:24:26;;;;;;;;;;;;;;;;;;5052805;28;19991;-66
2022/11/12 15:26:52;;;;;;;;;;;;;;;;;;5052387;28;20321;-66
2022/11/12 15:29:18;;;;;;;;;;;;;;;;;;5052268;28;19905;-66
2022/11/12 15:31:44;;;;;;;;;;;;;;;;;;5052140;28;19911;-66
2022/11/12 15:34:10;;;;;;;;;;;;;;;;;;5052263;28;19905;-66
2022/11/12 15:36:36;;;;;;;;;;;;;;;;;;5052585;28;19905;-66
2022/11/12 15:39:02;;;;;;;;;;;;;;;;;;5052363;28;19995;-66
2022/11/12 15:41:28;;;;;;;;;;;;;;;;;;5052593;28;19958;-66
2022/11/12 15:43:54;;;;;;;;;;;;;;;;;;5052593;28;19908;-66
2022/11/12 15:46:20;;;;;;;;;;;;;;;;;;5052229;28;19958;-66
2022/11/12 15:48:46;;;;;;;;;;;;;;;;;;5052063;28;19943;-66
2022/11/12 15:51:12;;;;;;;;;;;;;;;;;;5052351;28;20027;-66
2022/11/12 15:53:38;;;;;;;;;;;;;;;;;;5051891;28;20420;-66
2022/11/12 15:56:05;;;;;;;;;;;;;;;;;;5051588;28;19909;-68
2022/11/12 15:58:31;;;;;;;;;;;;;;;;;;5051630;28;19919;-66
2022/11/12 16:00:57;;;;;;;;;;;;;;;;;;5051967;28;19905;-66
2022/11/12 16:03:23;;;;;;;;;;;;;;;;;;5052162;28;20014;-66
2022/11/12 16:05:48;;;;;;;;;;;;;;;;;;5052096;28;19915;-66
2022/11/12 16:08:14;;;;;;;;;;;;;;;;;;5052025;28;19951;-66
2022/11/12 16:10:40;;;;;;;;;;;;;;;;;;5052219;28;19905;-66
2022/11/12 16:13:06;;;;;;;;;;;;;;;;;;5051815;28;19954;-67
2022/11/12 16:15:32;;;;;;;;;;;;;;;;;;5050455;28;19905;-67
2022/11/12 16:17:59;;;;;;;;;;;;;;;;;;5051737;28;19909;-67
2022/11/12 16:20:25;;;;;;;;;;;;;;;;;;5050580;28;19909;-67
2022/11/12 16:22:50;;;;;;;;;;;;;;;;;;5050660;28;19950;-66
2022/11/12 16:25:16;;;;;;;;;;;;;;;;;;5051935;28;19970;-67
2022/11/12 16:27:42;;;;;;;;;;;;;;;;;;5051816;28;19957;-67
2022/11/12 16:30:08;;;;;;;;;;;;;;;;;;5051722;28;19908;-66
2022/11/12 16:32:34;;;;;;;;;;;;;;;;;;5052312;28;20341;-66
2022/11/12 16:35:00;;;;;;;;;;;;;;;;;;5051877;28;19951;-67
2022/11/12 16:37:26;;;;;;;;;;;;;;;;;;5051802;28;19904;-66
2022/11/12 16:39:52;;;;;;;;;;;;;;;;;;5051686;28;19912;-67
2022/11/12 16:42:18;;;;;;;;;;;;;;;;;;5051819;28;20004;-66
2022/11/12 16:44:44;;;;;;;;;;;;;;;;;;5050315;28;19999;-67